Погода Теллеборгна 2 недели

Сконе, Швеция

24 июня-07 июля
  • 24июня
    Сегодня
    +10°
    +20°
    Небольшая облачность
    ВремяПогодаТемператураВлажностьДавлениеВетер, м/сВероятность осадков
    02:00Ясно и безоблачно+13°C91 %763 мм2.7 м/с2 %
    05:00Ясно и безоблачно+13°C93 %763 мм3.2 м/с2 %
    08:00Ясно и безоблачно+16°C86 %764 мм3.3 м/с2 %
    11:00Небольшая облачность+18°C78 %764 мм3.2 м/с4 %
    14:00Небольшая облачность+20°C72 %765 мм3.4 м/с2 %
    17:00Облачно с прояснениями+20°C75 %765 мм3.6 м/с2 %
    20:00Облачно с прояснениями+18°C84 %765 мм1.4 м/с2 %
    23:00Ясно и безоблачно+14°C91 %765 мм2.0 м/с2 %
  • 25июня
    Вторник
    +12°
    +21°
    Небольшая облачность
    ВремяПогодаТемператураВлажностьДавлениеВетер, м/сВероятность осадков
    02:00Ясно и безоблачно+12°C88 %765 мм2.2 м/с2 %
    05:00Практически безоблачно+11°C93 %765 мм1.8 м/с2 %
    08:00Ясно и безоблачно+17°C76 %765 мм0.9 м/с2 %
    11:00Небольшая облачность+20°C67 %765 мм2.0 м/с2 %
    14:00Небольшая облачность+21°C69 %765 мм2.5 м/с2 %
    17:00Ясно и безоблачно+20°C71 %765 мм2.4 м/с2 %
    20:00Ясно и безоблачно+19°C77 %764 мм1.7 м/с2 %
    23:00Ясно и безоблачно+15°C92 %764 мм2.5 м/с2 %
  • 26июня
    Среда
    +17°
    +25°
    Ясно и безоблачно
    ВремяПогодаТемператураВлажностьДавлениеВетер, м/сВероятность осадков
    02:00Ясно и безоблачно+13°C94 %764 мм2.4 м/с2 %
    05:00Ясно и безоблачно+13°C93 %763 мм2.5 м/с2 %
    08:00Ясно и безоблачно+19°C82 %763 мм2.7 м/с2 %
    11:00Ясно и безоблачно+22°C75 %763 мм3.3 м/с2 %
    14:00Ясно и безоблачно+24°C72 %762 мм3.5 м/с2 %
    17:00Ясно и безоблачно+24°C69 %761 мм3.5 м/с2 %
    20:00Ясно и безоблачно+22°C78 %761 мм3.4 м/с2 %
    23:00Ясно и безоблачно+18°C81 %761 мм3.6 м/с2 %
  • 27июня
    Четверг
    +18°
    +26°
    Ясно и безоблачно
    ВремяПогодаТемператураВлажностьДавлениеВетер, м/сВероятность осадков
    02:00Ясно и безоблачно+17°C82 %760 мм3.8 м/с2 %
    05:00Облачно с прояснениями+17°C83 %760 мм4.2 м/с2 %
    08:00Ясно и безоблачно+21°C75 %759 мм4.9 м/с2 %
    11:00Ясно и безоблачно+24°C66 %760 мм5.3 м/с2 %
    14:00Ясно и безоблачно+26°C62 %759 мм5.7 м/с2 %
    17:00Ясно и безоблачно+26°C62 %759 мм5.7 м/с2 %
    20:00Ясно и безоблачно+23°C69 %759 мм5.4 м/с2 %
    23:00Ясно и безоблачно+20°C74 %758 мм5.3 м/с3 %
  • 28июня
    Пятница
    +14°
    +25°
    Небольшая облачность
    ВремяПогодаТемператураВлажностьДавлениеВетер, м/сВероятность осадков
    02:00Облачно с прояснениями+20°C76 %758 мм5.3 м/с2 %
    05:00Облачно с прояснениями+19°C84 %757 мм4.6 м/с17 %
    08:00Пасмурно, дожди с грозами+20°C85 %757 мм3.0 м/с32 %
    11:00Практически безоблачно+23°C81 %757 мм3.2 м/с38 %
    14:00Небольшая облачность+24°C78 %756 мм4.0 м/с37 %
    17:00Небольшая облачность+24°C81 %755 мм2.9 м/с41 %
    20:00Пасмурно, дожди с грозами+22°C95 %755 мм0.5 м/с42 %
    23:00Пасмурно, ливень+19°C98 %755 мм2.5 м/с37 %
Мы используем cookies
Соглашаюсь